Terminal Aerodrome Forecast
Issued by NWS Jackson, MS

Home | Current Version | Previous Version | Text Only | Print | Product List | Glossary On
Versions: 1 2 3 4 5 6 7 8 9 10 11 12 13 14 15 16 17 18
000
FTUS44 KJAN 252320
TAFHBG
TAF
KHBG 252320Z 2600/2624 15003KT P6SM VCTS FEW020 SCT040CB
     FM260200 00000KT 6SM BR SCT250
     FM261000 00000KT 4SM BR BKN015
     FM261400 12004KT P6SM SCT020
     FM261800 12007KT P6SM VCTS SCT050CB=

USA.gov is the U.S. government's official web portal to all federal, state and local government web resources and services.